sensor_id;sensor_type;location;lat;lon;timestamp;temperature;humidity
4828;DHT22;2428;48.732;9.148;2022-08-21T00:00:34;16.90;99.90
4828;DHT22;2428;48.732;9.148;2022-08-21T00:03:05;16.90;99.90
4828;DHT22;2428;48.732;9.148;2022-08-21T00:05:35;16.80;99.90
4828;DHT22;2428;48.732;9.148;2022-08-21T00:08:01;16.70;99.90
4828;DHT22;2428;48.732;9.148;2022-08-21T00:10:27;16.70;99.90
4828;DHT22;2428;48.732;9.148;2022-08-21T00:12:53;16.70;99.90
4828;DHT22;2428;48.732;9.148;2022-08-21T00:15:29;16.70;99.90
4828;DHT22;2428;48.732;9.148;2022-08-21T00:17:55;16.60;99.90
4828;DHT22;2428;48.732;9.148;2022-08-21T00:20:22;16.60;99.90
4828;DHT22;2428;48.732;9.148;2022-08-21T00:22:49;16.60;99.90
4828;DHT22;2428;48.732;9.148;2022-08-21T00:25:16;16.60;99.90
4828;DHT22;2428;48.732;9.148;2022-08-21T00:27:43;16.60;99.90
4828;DHT22;2428;48.732;9.148;2022-08-21T00:30:10;16.50;99.90
4828;DHT22;2428;48.732;9.148;2022-08-21T00:32:39;16.60;99.90
4828;DHT22;2428;48.732;9.148;2022-08-21T00:35:10;16.50;99.90
4828;DHT22;2428;48.732;9.148;2022-08-21T00:37:40;16.40;99.90
4828;DHT22;2428;48.732;9.148;2022-08-21T00:40:08;16.50;99.90
4828;DHT22;2428;48.732;9.148;2022-08-21T00:42:34;16.40;99.90
4828;DHT22;2428;48.732;9.148;2022-08-21T00:45:00;16.50;99.90
4828;DHT22;2428;48.732;9.148;2022-08-21T00:47:26;16.30;99.90
4828;DHT22;2428;48.732;9.148;2022-08-21T00:49:51;16.30;99.90
4828;DHT22;2428;48.732;9.148;2022-08-21T00:52:21;16.30;99.90
4828;DHT22;2428;48.732;9.148;2022-08-21T00:54:48;16.20;99.90
4828;DHT22;2428;48.732;9.148;2022-08-21T00:57:19;16.30;99.90
4828;DHT22;2428;48.732;9.148;2022-08-21T00:59:49;16.20;99.90
4828;DHT22;2428;48.732;9.148;2022-08-21T01:02:16;16.10;99.90
4828;DHT22;2428;48.732;9.148;2022-08-21T01:04:42;16.00;99.90
4828;DHT22;2428;48.732;9.148;2022-08-21T01:07:09;16.00;99.90
4828;DHT22;2428;48.732;9.148;2022-08-21T01:09:35;16.00;99.90
4828;DHT22;2428;48.732;9.148;2022-08-21T01:12:01;15.90;99.90
4828;DHT22;2428;48.732;9.148;2022-08-21T01:14:27;16.00;99.90
4828;DHT22;2428;48.732;9.148;2022-08-21T01:16:54;16.00;99.90
4828;DHT22;2428;48.732;9.148;2022-08-21T01:19:21;16.00;99.90
4828;DHT22;2428;48.732;9.148;2022-08-21T01:21:47;16.00;99.90
4828;DHT22;2428;48.732;9.148;2022-08-21T01:24:13;16.00;99.90
4828;DHT22;2428;48.732;9.148;2022-08-21T01:26:40;15.90;99.90
4828;DHT22;2428;48.732;9.148;2022-08-21T01:31:31;15.70;99.90
4828;DHT22;2428;48.732;9.148;2022-08-21T01:33:58;15.70;99.90
4828;DHT22;2428;48.732;9.148;2022-08-21T01:36:25;15.60;99.90
4828;DHT22;2428;48.732;9.148;2022-08-21T01:38:50;15.60;99.90
4828;DHT22;2428;48.732;9.148;2022-08-21T01:41:16;15.60;99.90
4828;DHT22;2428;48.732;9.148;2022-08-21T01:43:42;15.60;99.90
4828;DHT22;2428;48.732;9.148;2022-08-21T01:46:09;15.60;99.90
4828;DHT22;2428;48.732;9.148;2022-08-21T01:48:35;15.50;99.90
4828;DHT22;2428;48.732;9.148;2022-08-21T01:51:01;15.50;99.90
4828;DHT22;2428;48.732;9.148;2022-08-21T01:53:27;15.50;99.90
4828;DHT22;2428;48.732;9.148;2022-08-21T01:55:52;15.40;99.90
4828;DHT22;2428;48.732;9.148;2022-08-21T01:58:18;15.40;99.90
4828;DHT22;2428;48.732;9.148;2022-08-21T02:00:44;15.30;99.90
4828;DHT22;2428;48.732;9.148;2022-08-21T02:03:09;15.30;99.90
4828;DHT22;2428;48.732;9.148;2022-08-21T02:05:35;15.30;99.90
4828;DHT22;2428;48.732;9.148;2022-08-21T02:08:01;15.20;99.90
4828;DHT22;2428;48.732;9.148;2022-08-21T02:10:31;15.20;99.90
4828;DHT22;2428;48.732;9.148;2022-08-21T02:12:58;15.20;99.90
4828;DHT22;2428;48.732;9.148;2022-08-21T02:15:25;15.20;99.90
4828;DHT22;2428;48.732;9.148;2022-08-21T02:17:53;15.10;99.90
4828;DHT22;2428;48.732;9.148;2022-08-21T02:22:52;15.00;99.90
4828;DHT22;2428;48.732;9.148;2022-08-21T02:25:19;15.00;99.90
4828;DHT22;2428;48.732;9.148;2022-08-21T02:27:46;15.00;99.90
4828;DHT22;2428;48.732;9.148;2022-08-21T02:30:19;15.00;99.90
4828;DHT22;2428;48.732;9.148;2022-08-21T02:32:45;14.90;99.90
4828;DHT22;2428;48.732;9.148;2022-08-21T02:35:11;14.90;99.90
4828;DHT22;2428;48.732;9.148;2022-08-21T02:38:04;15.00;99.90
4828;DHT22;2428;48.732;9.148;2022-08-21T02:40:32;14.90;99.90
4828;DHT22;2428;48.732;9.148;2022-08-21T02:42:59;14.80;99.90
4828;DHT22;2428;48.732;9.148;2022-08-21T02:45:26;14.80;99.90
4828;DHT22;2428;48.732;9.148;2022-08-21T02:47:59;14.80;99.90
4828;DHT22;2428;48.732;9.148;2022-08-21T02:50:35;14.80;99.90
4828;DHT22;2428;48.732;9.148;2022-08-21T02:53:01;14.80;99.90
4828;DHT22;2428;48.732;9.148;2022-08-21T02:55:30;14.70;99.90
4828;DHT22;2428;48.732;9.148;2022-08-21T02:57:57;14.70;99.90
4828;DHT22;2428;48.732;9.148;2022-08-21T03:00:24;14.70;99.90
4828;DHT22;2428;48.732;9.148;2022-08-21T03:02:51;14.70;99.90
4828;DHT22;2428;48.732;9.148;2022-08-21T03:05:19;14.70;99.90
4828;DHT22;2428;48.732;9.148;2022-08-21T03:07:45;14.70;99.90
4828;DHT22;2428;48.732;9.148;2022-08-21T03:10:12;14.70;99.90
4828;DHT22;2428;48.732;9.148;2022-08-21T03:12:38;14.60;99.90
4828;DHT22;2428;48.732;9.148;2022-08-21T03:15:05;14.60;99.90
4828;DHT22;2428;48.732;9.148;2022-08-21T03:17:32;14.60;99.90
4828;DHT22;2428;48.732;9.148;2022-08-21T03:19:58;14.60;99.90
4828;DHT22;2428;48.732;9.148;2022-08-21T03:22:24;14.60;99.90
4828;DHT22;2428;48.732;9.148;2022-08-21T03:24:49;14.60;99.90
4828;DHT22;2428;48.732;9.148;2022-08-21T03:27:15;14.60;99.90
4828;DHT22;2428;48.732;9.148;2022-08-21T03:29:41;14.70;99.90
4828;DHT22;2428;48.732;9.148;2022-08-21T03:32:07;14.70;99.90
4828;DHT22;2428;48.732;9.148;2022-08-21T03:34:39;14.60;99.90
4828;DHT22;2428;48.732;9.148;2022-08-21T03:37:06;14.60;99.90
4828;DHT22;2428;48.732;9.148;2022-08-21T03:39:32;14.60;99.90
4828;DHT22;2428;48.732;9.148;2022-08-21T03:41:58;14.60;99.90
4828;DHT22;2428;48.732;9.148;2022-08-21T03:44:25;14.50;99.90
4828;DHT22;2428;48.732;9.148;2022-08-21T03:46:54;14.60;99.90
4828;DHT22;2428;48.732;9.148;2022-08-21T03:49:20;14.70;99.90
4828;DHT22;2428;48.732;9.148;2022-08-21T03:51:46;14.70;99.90
4828;DHT22;2428;48.732;9.148;2022-08-21T03:54:11;14.70;99.90
4828;DHT22;2428;48.732;9.148;2022-08-21T03:56:37;14.70;99.90
4828;DHT22;2428;48.732;9.148;2022-08-21T03:59:03;14.70;99.90
4828;DHT22;2428;48.732;9.148;2022-08-21T04:01:29;14.60;99.90
4828;DHT22;2428;48.732;9.148;2022-08-21T04:03:55;14.60;99.90
4828;DHT22;2428;48.732;9.148;2022-08-21T04:06:20;14.60;99.90
4828;DHT22;2428;48.732;9.148;2022-08-21T04:08:46;14.60;99.90
4828;DHT22;2428;48.732;9.148;2022-08-21T04:11:12;14.60;99.90
4828;DHT22;2428;48.732;9.148;2022-08-21T04:13:38;14.60;99.90
4828;DHT22;2428;48.732;9.148;2022-08-21T04:16:04;14.50;99.90
4828;DHT22;2428;48.732;9.148;2022-08-21T04:18:29;14.50;99.90
4828;DHT22;2428;48.732;9.148;2022-08-21T04:20:57;14.50;99.90
4828;DHT22;2428;48.732;9.148;2022-08-21T04:23:24;14.50;99.90
4828;DHT22;2428;48.732;9.148;2022-08-21T04:25:52;14.50;99.90
4828;DHT22;2428;48.732;9.148;2022-08-21T04:28:18;14.40;99.90
4828;DHT22;2428;48.732;9.148;2022-08-21T04:30:44;14.40;99.90
4828;DHT22;2428;48.732;9.148;2022-08-21T04:33:10;14.40;99.90
4828;DHT22;2428;48.732;9.148;2022-08-21T04:35:35;14.50;99.90
4828;DHT22;2428;48.732;9.148;2022-08-21T04:38:01;14.50;99.90
4828;DHT22;2428;48.732;9.148;2022-08-21T04:40:27;14.50;99.90
4828;DHT22;2428;48.732;9.148;2022-08-21T04:43:00;14.50;99.90
4828;DHT22;2428;48.732;9.148;2022-08-21T04:47:55;14.50;99.90
4828;DHT22;2428;48.732;9.148;2022-08-21T04:50:46;14.50;99.90
4828;DHT22;2428;48.732;9.148;2022-08-21T04:53:26;14.50;99.90
4828;DHT22;2428;48.732;9.148;2022-08-21T04:55:54;14.50;99.90
4828;DHT22;2428;48.732;9.148;2022-08-21T04:58:23;14.50;99.90
4828;DHT22;2428;48.732;9.148;2022-08-21T05:00:52;14.50;99.90
4828;DHT22;2428;48.732;9.148;2022-08-21T05:03:19;14.50;99.90
4828;DHT22;2428;48.732;9.148;2022-08-21T05:05:44;14.50;99.90
4828;DHT22;2428;48.732;9.148;2022-08-21T05:08:14;14.50;99.90
4828;DHT22;2428;48.732;9.148;2022-08-21T05:10:41;14.50;99.90
4828;DHT22;2428;48.732;9.148;2022-08-21T05:13:07;14.50;99.90
4828;DHT22;2428;48.732;9.148;2022-08-21T05:15:33;14.50;99.90
4828;DHT22;2428;48.732;9.148;2022-08-21T05:17:59;14.50;99.90
4828;DHT22;2428;48.732;9.148;2022-08-21T05:20:24;14.60;99.90
4828;DHT22;2428;48.732;9.148;2022-08-21T05:22:50;14.60;99.90
4828;DHT22;2428;48.732;9.148;2022-08-21T05:25:16;14.60;99.90
4828;DHT22;2428;48.732;9.148;2022-08-21T05:27:42;14.70;99.90
4828;DHT22;2428;48.732;9.148;2022-08-21T05:30:09;14.70;99.90
4828;DHT22;2428;48.732;9.148;2022-08-21T05:32:35;14.80;99.90
4828;DHT22;2428;48.732;9.148;2022-08-21T05:35:02;14.90;99.90
4828;DHT22;2428;48.732;9.148;2022-08-21T05:37:28;15.00;99.90
4828;DHT22;2428;48.732;9.148;2022-08-21T05:39:53;15.00;99.90
4828;DHT22;2428;48.732;9.148;2022-08-21T05:42:19;15.10;99.90
4828;DHT22;2428;48.732;9.148;2022-08-21T05:44:45;15.20;99.90
4828;DHT22;2428;48.732;9.148;2022-08-21T05:47:11;15.20;99.90
4828;DHT22;2428;48.732;9.148;2022-08-21T05:49:37;15.30;99.90
4828;DHT22;2428;48.732;9.148;2022-08-21T05:52:03;15.30;99.90
4828;DHT22;2428;48.732;9.148;2022-08-21T05:54:29;15.40;99.90
4828;DHT22;2428;48.732;9.148;2022-08-21T05:56:55;15.40;99.90
4828;DHT22;2428;48.732;9.148;2022-08-21T05:59:21;15.50;99.90
4828;DHT22;2428;48.732;9.148;2022-08-21T06:01:47;15.50;99.90
4828;DHT22;2428;48.732;9.148;2022-08-21T06:04:13;15.60;99.90
4828;DHT22;2428;48.732;9.148;2022-08-21T06:06:39;15.60;99.90
4828;DHT22;2428;48.732;9.148;2022-08-21T06:09:05;15.60;99.90
4828;DHT22;2428;48.732;9.148;2022-08-21T06:11:32;15.70;99.90
4828;DHT22;2428;48.732;9.148;2022-08-21T06:13:58;15.90;99.90
4828;DHT22;2428;48.732;9.148;2022-08-21T06:16:24;15.80;99.90
4828;DHT22;2428;48.732;9.148;2022-08-21T06:18:50;15.90;99.90
4828;DHT22;2428;48.732;9.148;2022-08-21T06:21:16;16.00;99.90
4828;DHT22;2428;48.732;9.148;2022-08-21T06:23:43;16.00;99.90
4828;DHT22;2428;48.732;9.148;2022-08-21T06:26:10;16.10;99.90
4828;DHT22;2428;48.732;9.148;2022-08-21T06:28:36;16.20;99.90
4828;DHT22;2428;48.732;9.148;2022-08-21T06:31:19;16.30;99.90
4828;DHT22;2428;48.732;9.148;2022-08-21T06:33:46;16.30;99.90
4828;DHT22;2428;48.732;9.148;2022-08-21T06:36:12;16.40;99.90
4828;DHT22;2428;48.732;9.148;2022-08-21T06:38:37;16.50;99.90
4828;DHT22;2428;48.732;9.148;2022-08-21T06:41:04;16.50;99.90
4828;DHT22;2428;48.732;9.148;2022-08-21T06:43:30;16.50;99.90
4828;DHT22;2428;48.732;9.148;2022-08-21T06:45:56;16.60;99.90
4828;DHT22;2428;48.732;9.148;2022-08-21T06:48:22;16.70;99.90
4828;DHT22;2428;48.732;9.148;2022-08-21T06:50:48;16.70;99.90
4828;DHT22;2428;48.732;9.148;2022-08-21T06:53:17;16.80;99.90
4828;DHT22;2428;48.732;9.148;2022-08-21T06:55:44;16.90;99.90
4828;DHT22;2428;48.732;9.148;2022-08-21T06:58:10;17.00;99.90
4828;DHT22;2428;48.732;9.148;2022-08-21T07:00:40;17.10;99.90
4828;DHT22;2428;48.732;9.148;2022-08-21T07:03:05;17.20;99.90
4828;DHT22;2428;48.732;9.148;2022-08-21T07:05:31;17.20;99.90
4828;DHT22;2428;48.732;9.148;2022-08-21T07:07:57;17.30;99.90
4828;DHT22;2428;48.732;9.148;2022-08-21T07:10:24;17.40;99.90
4828;DHT22;2428;48.732;9.148;2022-08-21T07:12:50;17.50;99.90
4828;DHT22;2428;48.732;9.148;2022-08-21T07:15:17;17.50;99.90
4828;DHT22;2428;48.732;9.148;2022-08-21T07:17:43;17.60;99.90
4828;DHT22;2428;48.732;9.148;2022-08-21T07:20:09;17.70;99.90
4828;DHT22;2428;48.732;9.148;2022-08-21T07:22:35;17.70;99.90
4828;DHT22;2428;48.732;9.148;2022-08-21T07:25:01;17.80;99.90
4828;DHT22;2428;48.732;9.148;2022-08-21T07:27:27;17.90;99.90
4828;DHT22;2428;48.732;9.148;2022-08-21T07:29:52;17.90;99.90
4828;DHT22;2428;48.732;9.148;2022-08-21T07:32:18;18.00;99.90
4828;DHT22;2428;48.732;9.148;2022-08-21T07:34:44;18.00;99.90
4828;DHT22;2428;48.732;9.148;2022-08-21T07:37:09;18.10;99.90
4828;DHT22;2428;48.732;9.148;2022-08-21T07:39:35;18.20;99.90
4828;DHT22;2428;48.732;9.148;2022-08-21T07:42:01;18.30;99.90
4828;DHT22;2428;48.732;9.148;2022-08-21T07:44:28;18.30;99.90
4828;DHT22;2428;48.732;9.148;2022-08-21T07:46:54;18.40;99.90
4828;DHT22;2428;48.732;9.148;2022-08-21T07:49:19;18.40;99.90
4828;DHT22;2428;48.732;9.148;2022-08-21T07:51:45;18.50;99.90
4828;DHT22;2428;48.732;9.148;2022-08-21T07:54:11;18.50;99.90
4828;DHT22;2428;48.732;9.148;2022-08-21T07:56:37;18.60;99.90
4828;DHT22;2428;48.732;9.148;2022-08-21T07:59:02;18.70;99.90
4828;DHT22;2428;48.732;9.148;2022-08-21T08:01:28;18.70;99.90
4828;DHT22;2428;48.732;9.148;2022-08-21T08:03:54;18.80;99.90
4828;DHT22;2428;48.732;9.148;2022-08-21T08:06:20;18.80;99.90
4828;DHT22;2428;48.732;9.148;2022-08-21T08:08:46;18.90;99.90
4828;DHT22;2428;48.732;9.148;2022-08-21T08:11:12;19.00;99.90
4828;DHT22;2428;48.732;9.148;2022-08-21T08:13:51;19.00;99.90
4828;DHT22;2428;48.732;9.148;2022-08-21T08:16:18;19.10;99.90
4828;DHT22;2428;48.732;9.148;2022-08-21T08:18:44;19.20;99.90
4828;DHT22;2428;48.732;9.148;2022-08-21T08:21:11;19.30;99.90
4828;DHT22;2428;48.732;9.148;2022-08-21T08:23:38;19.40;99.90
4828;DHT22;2428;48.732;9.148;2022-08-21T08:26:04;19.40;99.90
4828;DHT22;2428;48.732;9.148;2022-08-21T08:28:31;19.50;99.90
4828;DHT22;2428;48.732;9.148;2022-08-21T08:31:00;19.50;99.90
4828;DHT22;2428;48.732;9.148;2022-08-21T08:33:26;19.50;99.90
4828;DHT22;2428;48.732;9.148;2022-08-21T08:35:53;19.60;99.90
4828;DHT22;2428;48.732;9.148;2022-08-21T08:38:20;19.60;99.90
4828;DHT22;2428;48.732;9.148;2022-08-21T08:41:00;19.60;99.90
4828;DHT22;2428;48.732;9.148;2022-08-21T08:43:28;19.80;99.90
4828;DHT22;2428;48.732;9.148;2022-08-21T08:45:57;19.80;99.90
4828;DHT22;2428;48.732;9.148;2022-08-21T08:51:01;20.00;99.90
4828;DHT22;2428;48.732;9.148;2022-08-21T08:53:32;20.00;99.90
4828;DHT22;2428;48.732;9.148;2022-08-21T08:56:00;20.10;99.90
4828;DHT22;2428;48.732;9.148;2022-08-21T08:58:34;20.20;99.90
4828;DHT22;2428;48.732;9.148;2022-08-21T09:01:05;20.30;99.90
4828;DHT22;2428;48.732;9.148;2022-08-21T09:03:36;20.40;99.90
4828;DHT22;2428;48.732;9.148;2022-08-21T09:12:06;20.60;99.90
4828;DHT22;2428;48.732;9.148;2022-08-21T09:14:47;20.60;99.90
4828;DHT22;2428;48.732;9.148;2022-08-21T09:17:39;20.70;99.90
4828;DHT22;2428;48.732;9.148;2022-08-21T09:25:45;20.70;99.90
4828;DHT22;2428;48.732;9.148;2022-08-21T09:28:13;20.70;99.90
4828;DHT22;2428;48.732;9.148;2022-08-21T09:30:40;20.80;99.90
4828;DHT22;2428;48.732;9.148;2022-08-21T09:33:07;20.90;99.90
4828;DHT22;2428;48.732;9.148;2022-08-21T09:35:33;20.90;99.90
4828;DHT22;2428;48.732;9.148;2022-08-21T09:38:06;21.00;99.90
4828;DHT22;2428;48.732;9.148;2022-08-21T09:40:44;21.10;99.90
4828;DHT22;2428;48.732;9.148;2022-08-21T09:43:22;21.20;99.90
4828;DHT22;2428;48.732;9.148;2022-08-21T09:46:12;21.40;99.90
4828;DHT22;2428;48.732;9.148;2022-08-21T09:48:47;21.50;99.90
4828;DHT22;2428;48.732;9.148;2022-08-21T09:51:22;21.70;99.90
4828;DHT22;2428;48.732;9.148;2022-08-21T09:53:52;21.90;99.90
4828;DHT22;2428;48.732;9.148;2022-08-21T09:56:58;22.00;99.90
4828;DHT22;2428;48.732;9.148;2022-08-21T09:59:43;22.20;99.90
4828;DHT22;2428;48.732;9.148;2022-08-21T10:04:50;22.60;99.90
4828;DHT22;2428;48.732;9.148;2022-08-21T10:07:21;22.70;99.90
4828;DHT22;2428;48.732;9.148;2022-08-21T10:10:05;22.80;99.90
4828;DHT22;2428;48.732;9.148;2022-08-21T10:18:14;23.10;99.90
4828;DHT22;2428;48.732;9.148;2022-08-21T10:20:50;23.00;99.90
4828;DHT22;2428;48.732;9.148;2022-08-21T10:35:11;29.80;99.90
4828;DHT22;2428;48.732;9.148;2022-08-21T10:43:04;33.70;90.00
4828;DHT22;2428;48.732;9.148;2022-08-21T10:48:06;34.10;82.60
4828;DHT22;2428;48.732;9.148;2022-08-21T11:00:53;35.60;73.00
4828;DHT22;2428;48.732;9.148;2022-08-21T11:03:41;36.10;67.70
4828;DHT22;2428;48.732;9.148;2022-08-21T11:06:25;35.80;65.90
4828;DHT22;2428;48.732;9.148;2022-08-21T11:08:58;35.60;65.40
4828;DHT22;2428;48.732;9.148;2022-08-21T11:11:45;35.20;67.20
4828;DHT22;2428;48.732;9.148;2022-08-21T11:17:07;35.90;65.00
4828;DHT22;2428;48.732;9.148;2022-08-21T11:19:35;36.60;64.40
4828;DHT22;2428;48.732;9.148;2022-08-21T11:22:48;36.60;58.80
4828;DHT22;2428;48.732;9.148;2022-08-21T11:25:37;35.50;59.10
4828;DHT22;2428;48.732;9.148;2022-08-21T11:28:10;35.60;63.00
4828;DHT22;2428;48.732;9.148;2022-08-21T11:36:39;35.60;58.50
4828;DHT22;2428;48.732;9.148;2022-08-21T11:41:52;35.60;58.90
4828;DHT22;2428;48.732;9.148;2022-08-21T11:44:59;35.80;61.00
4828;DHT22;2428;48.732;9.148;2022-08-21T11:50:27;34.40;58.70
4828;DHT22;2428;48.732;9.148;2022-08-21T11:52:56;33.10;60.50
4828;DHT22;2428;48.732;9.148;2022-08-21T11:55:56;32.50;61.90
4828;DHT22;2428;48.732;9.148;2022-08-21T11:58:30;31.60;64.40
4828;DHT22;2428;48.732;9.148;2022-08-21T12:01:07;30.10;67.30
4828;DHT22;2428;48.732;9.148;2022-08-21T12:03:36;29.20;70.70
4828;DHT22;2428;48.732;9.148;2022-08-21T12:06:12;28.60;71.40
4828;DHT22;2428;48.732;9.148;2022-08-21T12:08:39;28.00;75.20
4828;DHT22;2428;48.732;9.148;2022-08-21T12:11:22;27.60;74.90
4828;DHT22;2428;48.732;9.148;2022-08-21T12:13:56;27.30;76.50
4828;DHT22;2428;48.732;9.148;2022-08-21T12:19:05;26.50;83.50
4828;DHT22;2428;48.732;9.148;2022-08-21T12:21:32;26.30;81.10
4828;DHT22;2428;48.732;9.148;2022-08-21T12:26:53;25.80;85.90
4828;DHT22;2428;48.732;9.148;2022-08-21T12:29:26;25.50;89.10
4828;DHT22;2428;48.732;9.148;2022-08-21T12:34:33;25.20;84.60
4828;DHT22;2428;48.732;9.148;2022-08-21T12:40:28;24.80;82.20
4828;DHT22;2428;48.732;9.148;2022-08-21T12:42:57;24.70;89.20
4828;DHT22;2428;48.732;9.148;2022-08-21T12:45:33;24.60;84.80
4828;DHT22;2428;48.732;9.148;2022-08-21T12:48:06;24.60;87.30
4828;DHT22;2428;48.732;9.148;2022-08-21T12:50:48;24.50;85.50
4828;DHT22;2428;48.732;9.148;2022-08-21T12:55:53;24.40;88.60
4828;DHT22;2428;48.732;9.148;2022-08-21T12:58:25;24.40;86.60
4828;DHT22;2428;48.732;9.148;2022-08-21T13:00:54;24.40;88.20
4828;DHT22;2428;48.732;9.148;2022-08-21T13:03:22;24.40;88.10
4828;DHT22;2428;48.732;9.148;2022-08-21T13:05:48;24.50;91.10
4828;DHT22;2428;48.732;9.148;2022-08-21T13:08:18;24.40;87.60
4828;DHT22;2428;48.732;9.148;2022-08-21T13:10:47;24.50;91.40
4828;DHT22;2428;48.732;9.148;2022-08-21T13:13:22;24.50;88.40
4828;DHT22;2428;48.732;9.148;2022-08-21T13:15:48;24.50;85.50
4828;DHT22;2428;48.732;9.148;2022-08-21T13:18:24;24.70;86.30
4828;DHT22;2428;48.732;9.148;2022-08-21T13:20:51;25.10;88.00
4828;DHT22;2428;48.732;9.148;2022-08-21T13:23:25;25.40;85.00
4828;DHT22;2428;48.732;9.148;2022-08-21T13:25:51;25.40;80.40
4828;DHT22;2428;48.732;9.148;2022-08-21T13:28:17;25.40;81.50
4828;DHT22;2428;48.732;9.148;2022-08-21T13:30:51;25.40;81.40
4828;DHT22;2428;48.732;9.148;2022-08-21T13:33:19;25.50;83.70
4828;DHT22;2428;48.732;9.148;2022-08-21T13:38:29;25.60;79.90
4828;DHT22;2428;48.732;9.148;2022-08-21T13:41:40;25.80;80.70
4828;DHT22;2428;48.732;9.148;2022-08-21T13:43:56;26.00;80.80
4828;DHT22;2428;48.732;9.148;2022-08-21T13:46:24;26.10;81.10
4828;DHT22;2428;48.732;9.148;2022-08-21T13:48:51;26.20;79.30
4828;DHT22;2428;48.732;9.148;2022-08-21T13:51:18;26.30;81.20
4828;DHT22;2428;48.732;9.148;2022-08-21T13:53:48;26.40;82.00
4828;DHT22;2428;48.732;9.148;2022-08-21T13:56:41;26.30;76.20
4828;DHT22;2428;48.732;9.148;2022-08-21T13:59:07;26.10;78.60
4828;DHT22;2428;48.732;9.148;2022-08-21T14:01:39;26.40;82.60
4828;DHT22;2428;48.732;9.148;2022-08-21T14:04:22;26.60;79.10
4828;DHT22;2428;48.732;9.148;2022-08-21T14:06:49;26.80;78.70
4828;DHT22;2428;48.732;9.148;2022-08-21T14:09:32;27.00;78.90
4828;DHT22;2428;48.732;9.148;2022-08-21T14:12:18;27.10;77.20
4828;DHT22;2428;48.732;9.148;2022-08-21T14:14:44;27.20;75.70
4828;DHT22;2428;48.732;9.148;2022-08-21T14:17:14;26.90;76.60
4828;DHT22;2428;48.732;9.148;2022-08-21T14:19:50;26.70;76.20
4828;DHT22;2428;48.732;9.148;2022-08-21T14:30:21;27.00;77.10
4828;DHT22;2428;48.732;9.148;2022-08-21T14:32:47;27.00;79.00
4828;DHT22;2428;48.732;9.148;2022-08-21T14:35:14;27.20;74.80
4828;DHT22;2428;48.732;9.148;2022-08-21T14:37:44;27.30;79.60
4828;DHT22;2428;48.732;9.148;2022-08-21T14:40:11;27.40;80.70
4828;DHT22;2428;48.732;9.148;2022-08-21T14:42:37;27.50;74.60
4828;DHT22;2428;48.732;9.148;2022-08-21T14:45:15;27.50;73.50
4828;DHT22;2428;48.732;9.148;2022-08-21T14:47:41;27.50;73.40
4828;DHT22;2428;48.732;9.148;2022-08-21T14:50:08;27.50;75.70
4828;DHT22;2428;48.732;9.148;2022-08-21T14:52:34;27.60;74.20
4828;DHT22;2428;48.732;9.148;2022-08-21T14:54:59;27.50;72.80
4828;DHT22;2428;48.732;9.148;2022-08-21T14:57:26;27.60;75.00
4828;DHT22;2428;48.732;9.148;2022-08-21T14:59:53;27.60;74.80
4828;DHT22;2428;48.732;9.148;2022-08-21T15:02:18;27.90;74.80
4828;DHT22;2428;48.732;9.148;2022-08-21T15:04:44;27.90;73.20
4828;DHT22;2428;48.732;9.148;2022-08-21T15:07:09;27.90;73.50
4828;DHT22;2428;48.732;9.148;2022-08-21T15:09:35;27.90;72.40
4828;DHT22;2428;48.732;9.148;2022-08-21T15:12:02;27.90;73.50
4828;DHT22;2428;48.732;9.148;2022-08-21T15:14:31;27.90;71.80
4828;DHT22;2428;48.732;9.148;2022-08-21T15:16:57;27.80;73.10
4828;DHT22;2428;48.732;9.148;2022-08-21T15:19:23;27.90;72.10
4828;DHT22;2428;48.732;9.148;2022-08-21T15:21:48;27.90;71.20
4828;DHT22;2428;48.732;9.148;2022-08-21T15:24:15;27.90;70.50
4828;DHT22;2428;48.732;9.148;2022-08-21T15:26:40;27.60;71.10
4828;DHT22;2428;48.732;9.148;2022-08-21T15:29:07;27.50;73.90
4828;DHT22;2428;48.732;9.148;2022-08-21T15:31:34;27.40;69.20
4828;DHT22;2428;48.732;9.148;2022-08-21T15:34:00;27.00;68.60
4828;DHT22;2428;48.732;9.148;2022-08-21T15:36:26;26.80;70.90
4828;DHT22;2428;48.732;9.148;2022-08-21T15:38:52;26.70;72.30
4828;DHT22;2428;48.732;9.148;2022-08-21T15:41:17;26.60;70.20
4828;DHT22;2428;48.732;9.148;2022-08-21T15:43:51;26.60;70.80
4828;DHT22;2428;48.732;9.148;2022-08-21T15:46:18;26.40;70.30
4828;DHT22;2428;48.732;9.148;2022-08-21T15:48:44;26.20;70.10
4828;DHT22;2428;48.732;9.148;2022-08-21T15:51:12;26.20;72.30
4828;DHT22;2428;48.732;9.148;2022-08-21T15:53:37;26.20;72.20
4828;DHT22;2428;48.732;9.148;2022-08-21T15:56:06;26.20;71.80
4828;DHT22;2428;48.732;9.148;2022-08-21T15:58:36;26.20;72.70
4828;DHT22;2428;48.732;9.148;2022-08-21T16:01:02;26.30;71.90
4828;DHT22;2428;48.732;9.148;2022-08-21T16:03:28;26.40;75.60
4828;DHT22;2428;48.732;9.148;2022-08-21T16:05:54;26.50;75.70
4828;DHT22;2428;48.732;9.148;2022-08-21T16:08:22;26.50;73.90
4828;DHT22;2428;48.732;9.148;2022-08-21T16:10:48;26.40;75.10
4828;DHT22;2428;48.732;9.148;2022-08-21T16:13:27;26.50;74.70
4828;DHT22;2428;48.732;9.148;2022-08-21T16:15:54;26.60;74.30
4828;DHT22;2428;48.732;9.148;2022-08-21T16:18:21;26.60;74.50
4828;DHT22;2428;48.732;9.148;2022-08-21T16:20:47;26.60;72.70
4828;DHT22;2428;48.732;9.148;2022-08-21T16:23:13;26.50;72.40
4828;DHT22;2428;48.732;9.148;2022-08-21T16:25:40;26.40;73.00
4828;DHT22;2428;48.732;9.148;2022-08-21T16:28:08;26.30;72.00
4828;DHT22;2428;48.732;9.148;2022-08-21T16:30:35;26.20;71.00
4828;DHT22;2428;48.732;9.148;2022-08-21T16:33:01;26.20;72.50
4828;DHT22;2428;48.732;9.148;2022-08-21T16:35:27;26.10;74.40
4828;DHT22;2428;48.732;9.148;2022-08-21T16:37:53;26.10;73.50
4828;DHT22;2428;48.732;9.148;2022-08-21T16:40:20;26.10;74.10
4828;DHT22;2428;48.732;9.148;2022-08-21T16:42:47;26.00;72.90
4828;DHT22;2428;48.732;9.148;2022-08-21T16:45:15;25.90;71.40
4828;DHT22;2428;48.732;9.148;2022-08-21T16:47:42;25.80;72.10
4828;DHT22;2428;48.732;9.148;2022-08-21T16:50:10;25.70;73.30
4828;DHT22;2428;48.732;9.148;2022-08-21T16:52:36;25.60;72.80
4828;DHT22;2428;48.732;9.148;2022-08-21T16:55:02;25.50;73.50
4828;DHT22;2428;48.732;9.148;2022-08-21T16:57:28;25.40;74.60
4828;DHT22;2428;48.732;9.148;2022-08-21T16:59:53;25.30;75.40
4828;DHT22;2428;48.732;9.148;2022-08-21T17:02:36;25.20;73.50
4828;DHT22;2428;48.732;9.148;2022-08-21T17:05:02;25.10;74.10
4828;DHT22;2428;48.732;9.148;2022-08-21T17:07:28;25.00;75.90
4828;DHT22;2428;48.732;9.148;2022-08-21T17:09:55;24.90;77.30
4828;DHT22;2428;48.732;9.148;2022-08-21T17:12:21;24.80;79.20
4828;DHT22;2428;48.732;9.148;2022-08-21T17:14:47;24.70;77.10
4828;DHT22;2428;48.732;9.148;2022-08-21T17:17:14;24.60;77.10
4828;DHT22;2428;48.732;9.148;2022-08-21T17:19:40;24.60;77.90
4828;DHT22;2428;48.732;9.148;2022-08-21T17:22:07;24.60;78.20
4828;DHT22;2428;48.732;9.148;2022-08-21T17:24:34;24.50;78.70
4828;DHT22;2428;48.732;9.148;2022-08-21T17:27:00;24.50;77.50
4828;DHT22;2428;48.732;9.148;2022-08-21T17:29:32;24.40;79.00
4828;DHT22;2428;48.732;9.148;2022-08-21T17:31:59;24.30;76.50
4828;DHT22;2428;48.732;9.148;2022-08-21T17:34:24;24.30;77.50
4828;DHT22;2428;48.732;9.148;2022-08-21T17:36:51;24.20;83.50
4828;DHT22;2428;48.732;9.148;2022-08-21T17:39:17;24.10;80.90
4828;DHT22;2428;48.732;9.148;2022-08-21T17:41:42;23.90;79.10
4828;DHT22;2428;48.732;9.148;2022-08-21T17:44:10;23.90;81.60
4828;DHT22;2428;48.732;9.148;2022-08-21T17:46:37;23.80;87.40
4828;DHT22;2428;48.732;9.148;2022-08-21T17:49:06;23.60;86.00
4828;DHT22;2428;48.732;9.148;2022-08-21T17:51:31;23.60;84.10